createdAt,value
2022-09-30T00:00:00.000Z,7.95
2022-09-30T00:15:00.000Z,7.89
2022-09-30T00:30:00.000Z,7.75
2022-09-30T00:45:00.000Z,8.19
2022-09-30T01:00:00.000Z,7.89
2022-09-30T01:15:00.000Z,8.46
2022-09-30T01:30:00.000Z,9.02
2022-09-30T01:45:00.000Z,9.29
2022-09-30T02:00:00.000Z,9.36
2022-09-30T02:15:00.000Z,9.45
2022-09-30T02:30:00.000Z,9.91
2022-09-30T02:45:00.000Z,11.79
2022-09-30T03:00:00.000Z,11.92
2022-09-30T03:15:00.000Z,13.15
2022-09-30T03:30:00.000Z,14.45
2022-09-30T03:45:00.000Z,15.33
2022-09-30T04:00:00.000Z,14.71
2022-09-30T04:15:00.000Z,12.84
2022-09-30T04:30:00.000Z,11.34
2022-09-30T04:45:00.000Z,11.55
2022-09-30T05:00:00.000Z,13.44
2022-09-30T05:15:00.000Z,14.31
2022-09-30T05:30:00.000Z,13.32
2022-09-30T05:45:00.000Z,13.05
2022-09-30T06:00:00.000Z,11.92
2022-09-30T06:15:00.000Z,11.52
2022-09-30T06:30:00.000Z,13.26
2022-09-30T06:45:00.000Z,16.15
2022-09-30T07:00:00.000Z,14.88
2022-09-30T07:15:00.000Z,11.86
2022-09-30T07:30:00.000Z,10.21
2022-09-30T07:45:00.000Z,8.72
2022-09-30T08:00:00.000Z,7.35
2022-09-30T08:15:00.000Z,7.32
2022-09-30T08:30:00.000Z,6.81
2022-09-30T08:45:00.000Z,5.29
2022-09-30T09:00:00.000Z,4.2
2022-09-30T09:15:00.000Z,3.95
2022-09-30T09:30:00.000Z,3.58
2022-09-30T09:45:00.000Z,3.44
2022-09-30T10:00:00.000Z,3.22
2022-09-30T10:15:00.000Z,3.54
2022-09-30T10:30:00.000Z,3.67
2022-09-30T10:45:00.000Z,3.06
2022-09-30T11:00:00.000Z,3.21
2022-09-30T11:15:00.000Z,3.08
2022-09-30T11:30:00.000Z,2.81
2022-09-30T11:45:00.000Z,3.25
2022-09-30T12:00:00.000Z,3.21
2022-09-30T12:15:00.000Z,3.27
2022-09-30T12:30:00.000Z,2.18
2022-09-30T12:45:00.000Z,4.25
2022-09-30T13:00:00.000Z,3.93
2022-09-30T13:15:00.000Z,3.69
2022-09-30T13:30:00.000Z,3.32
2022-09-30T13:45:00.000Z,3.35
2022-09-30T14:00:00.000Z,4.21
2022-09-30T14:15:00.000Z,3.38
2022-09-30T14:30:00.000Z,3.28
2022-09-30T14:45:00.000Z,4.73
2022-09-30T15:00:00.000Z,5.99
2022-09-30T15:15:00.000Z,3.65
2022-09-30T15:30:00.000Z,3.75
2022-09-30T15:45:00.000Z,4.26
2022-09-30T16:00:00.000Z,5.41
2022-09-30T16:15:00.000Z,6.72
2022-09-30T16:30:00.000Z,7.38
2022-09-30T16:45:00.000Z,5.4
2022-09-30T17:00:00.000Z,6.88
2022-09-30T17:15:00.000Z,9.39
2022-09-30T17:30:00.000Z,9.85
2022-09-30T17:45:00.000Z,8.62
2022-09-30T18:00:00.000Z,6.81
2022-09-30T18:15:00.000Z,6.92
2022-09-30T18:30:00.000Z,9.39
2022-09-30T18:45:00.000Z,12.99
2022-09-30T19:00:00.000Z,13.26
2022-09-30T19:15:00.000Z,14.65
2022-09-30T19:30:00.000Z,15.91
2022-09-30T19:45:00.000Z,15.32
2022-09-30T20:00:00.000Z,15.22
2022-09-30T20:15:00.000Z,17.31
2022-09-30T20:30:00.000Z,20.76
2022-09-30T20:45:00.000Z,18.21
2022-09-30T21:00:00.000Z,16.44
2022-09-30T21:15:00.000Z,15.44
2022-09-30T21:30:00.000Z,14.16
2022-09-30T21:45:00.000Z,14.78
2022-09-30T22:00:00.000Z,15.29
2022-09-30T22:15:00.000Z,14.11
2022-09-30T22:30:00.000Z,15.08
2022-09-30T22:45:00.000Z,14.06
2022-09-30T23:00:00.000Z,13.32
2022-09-30T23:15:00.000Z,12.76
2022-09-30T23:30:00.000Z,11.22
2022-09-30T23:45:00.000Z,11.74
